createdAt,value
2023-04-21T00:00:02.408Z,46.70
2023-04-21T00:02:31.965Z,48.10
2023-04-21T00:05:02.526Z,47.20
2023-04-21T00:07:30.915Z,43.33
2023-04-21T00:10:00.684Z,45.53
2023-04-21T00:12:29.152Z,44.80
2023-04-21T00:14:57.321Z,46.37
2023-04-21T00:17:25.758Z,42.07
2023-04-21T00:19:54.723Z,43.07
2023-04-21T00:22:23.492Z,44.60
2023-04-21T00:24:52.112Z,43.70
2023-04-21T00:27:21.954Z,42.80
2023-04-21T00:29:50.299Z,44.80
2023-04-21T00:32:19.911Z,39.83
2023-04-21T00:34:48.826Z,41.23
2023-04-21T00:37:17.179Z,43.77
2023-04-21T00:39:45.695Z,46.10
2023-04-21T00:42:17.154Z,42.73
2023-04-21T00:44:47.333Z,46.37
2023-04-21T00:47:18.289Z,44.87
2023-04-21T00:49:47.331Z,46.63
2023-04-21T00:52:18.731Z,44.60
2023-04-21T00:54:47.794Z,44.10
2023-04-21T00:57:17.843Z,45.53
2023-04-21T00:59:47.874Z,43.90
2023-04-21T01:02:17.137Z,45.90
2023-04-21T01:04:47.371Z,45.87
2023-04-21T01:07:16.072Z,45.27
2023-04-21T01:09:44.423Z,44.10
2023-04-21T01:12:14.040Z,44.00
2023-04-21T01:14:44.615Z,45.33
2023-04-21T01:17:14.358Z,42.53
2023-04-21T01:19:44.198Z,42.40
2023-04-21T01:22:15.475Z,42.77
2023-04-21T01:24:45.668Z,42.17
2023-04-21T01:27:15.780Z,43.07
2023-04-21T01:29:46.959Z,42.43
2023-04-21T01:32:19.428Z,42.00
2023-04-21T01:34:48.322Z,41.83
2023-04-21T01:37:20.694Z,43.20
2023-04-21T01:39:52.410Z,42.33
2023-04-21T01:42:22.134Z,45.73
2023-04-21T01:44:53.860Z,43.40
2023-04-21T01:47:22.898Z,42.13
2023-04-21T01:49:51.827Z,46.07
2023-04-21T01:52:21.963Z,47.67
2023-04-21T01:54:50.757Z,46.60
2023-04-21T01:57:19.598Z,49.33
2023-04-21T01:59:48.494Z,45.57
2023-04-21T02:02:16.688Z,44.60
2023-04-21T02:04:44.869Z,43.47
2023-04-21T02:07:13.369Z,42.97
2023-04-21T02:09:46.048Z,45.27
2023-04-21T02:12:14.463Z,43.30
2023-04-21T02:14:42.818Z,43.03
2023-04-21T02:17:13.707Z,44.00
2023-04-21T02:19:43.635Z,44.97
2023-04-21T02:22:13.187Z,47.17
2023-04-21T02:24:43.745Z,44.67
2023-04-21T02:27:12.043Z,47.73
2023-04-21T02:29:40.383Z,49.50
2023-04-21T02:32:22.237Z,49.03
2023-04-21T02:34:53.514Z,45.67
2023-04-21T02:37:22.393Z,47.93
2023-04-21T02:39:52.546Z,48.77
2023-04-21T02:42:20.678Z,50.27
2023-04-21T02:44:49.113Z,51.03
2023-04-21T02:47:17.904Z,48.77
2023-04-21T02:49:46.408Z,52.37
2023-04-21T02:52:15.439Z,50.33
2023-04-21T02:54:43.893Z,48.87
2023-04-21T02:57:13.614Z,46.93
2023-04-21T02:59:43.179Z,49.73
2023-04-21T03:02:11.723Z,50.60
2023-04-21T03:04:40.095Z,50.90
2023-04-21T03:07:13.465Z,51.43
2023-04-21T03:09:42.171Z,50.80
2023-04-21T03:12:10.586Z,50.30
2023-04-21T03:14:40.612Z,50.63
2023-04-21T03:17:10.399Z,49.83
2023-04-21T03:19:38.654Z,49.70
2023-04-21T03:22:06.759Z,55.97
2023-04-21T03:24:35.213Z,53.07
2023-04-21T03:27:03.292Z,50.67
2023-04-21T03:29:31.837Z,49.43
2023-04-21T03:32:02.051Z,52.70
2023-04-21T03:34:30.556Z,53.40
2023-04-21T03:36:58.596Z,51.80
2023-04-21T03:39:27.300Z,53.77
2023-04-21T03:41:55.674Z,51.20
2023-04-21T03:44:27.166Z,51.30
2023-04-21T03:46:55.305Z,52.27
2023-04-21T03:49:25.090Z,49.30
2023-04-21T03:51:53.725Z,56.30
2023-04-21T03:54:22.166Z,49.20
2023-04-21T03:56:52.972Z,52.00
2023-04-21T03:59:21.810Z,49.67
2023-04-21T04:01:50.101Z,50.00
2023-04-21T04:04:18.857Z,49.60
2023-04-21T04:06:48.703Z,53.30
2023-04-21T04:09:20.154Z,55.17
2023-04-21T04:11:48.504Z,51.43
2023-04-21T04:14:16.648Z,47.23
2023-04-21T04:16:47.682Z,52.23
2023-04-21T04:19:16.347Z,53.40
2023-04-21T04:21:44.804Z,52.87
2023-04-21T04:24:16.073Z,51.23
2023-04-21T04:26:44.606Z,49.00
2023-04-21T04:29:14.095Z,48.20
2023-04-21T04:31:42.508Z,48.13
2023-04-21T04:34:11.568Z,44.43
2023-04-21T04:36:39.812Z,48.77
2023-04-21T04:39:09.661Z,46.60
2023-04-21T04:41:40.068Z,43.90
2023-04-21T04:44:09.272Z,45.97
2023-04-21T04:46:37.697Z,50.63
2023-04-21T04:49:06.509Z,47.30
2023-04-21T04:51:34.765Z,45.87
2023-04-21T04:54:02.918Z,47.83
2023-04-21T04:56:32.068Z,44.73
2023-04-21T04:59:01.961Z,46.80
2023-04-21T05:01:30.954Z,44.83
2023-04-21T05:03:59.789Z,47.47
2023-04-21T05:06:28.725Z,47.03
2023-04-21T05:08:56.769Z,51.17
2023-04-21T05:11:24.984Z,45.33
2023-04-21T05:13:53.140Z,48.70
2023-04-21T05:16:22.902Z,47.70
2023-04-21T05:18:54.157Z,49.03
2023-04-21T05:21:27.898Z,48.27
2023-04-21T05:23:56.421Z,47.03
2023-04-21T05:26:27.808Z,45.00
2023-04-21T05:28:57.230Z,47.73
2023-04-21T05:31:27.633Z,46.90
2023-04-21T05:33:56.331Z,50.37
2023-04-21T05:36:25.990Z,48.70
2023-04-21T05:38:55.387Z,47.97
2023-04-21T05:41:24.156Z,45.50
2023-04-21T05:43:53.612Z,49.53
2023-04-21T05:46:22.042Z,48.00
2023-04-21T05:48:51.898Z,50.70
2023-04-21T05:51:20.214Z,47.27
2023-04-21T05:53:49.363Z,50.27
2023-04-21T05:56:17.971Z,50.87
2023-04-21T05:58:46.139Z,55.40
2023-04-21T06:01:15.633Z,56.37
2023-04-21T06:03:43.967Z,50.93
2023-04-21T06:06:15.265Z,51.53
2023-04-21T06:08:43.866Z,50.63
2023-04-21T06:11:12.024Z,47.23
2023-04-21T06:13:41.711Z,47.50
2023-04-21T06:16:11.878Z,45.20
2023-04-21T06:18:40.260Z,49.77
2023-04-21T06:21:11.504Z,46.87
2023-04-21T06:23:42.731Z,49.73
2023-04-21T06:26:11.138Z,47.43
2023-04-21T06:28:42.017Z,45.90
2023-04-21T06:31:15.365Z,48.57
2023-04-21T06:33:43.718Z,45.50
2023-04-21T06:36:12.250Z,50.63
2023-04-21T06:38:43.408Z,51.20
2023-04-21T06:41:11.791Z,45.23
2023-04-21T06:43:39.900Z,47.73
2023-04-21T06:46:08.077Z,48.17
2023-04-21T06:48:38.430Z,44.97
2023-04-21T06:51:06.889Z,49.33
2023-04-21T06:53:35.145Z,46.40
2023-04-21T06:56:05.075Z,48.13
2023-04-21T06:58:33.264Z,49.93
2023-04-21T07:01:02.133Z,46.93
2023-04-21T07:03:30.293Z,45.60
2023-04-21T07:05:58.866Z,43.03
2023-04-21T07:08:27.318Z,44.17
2023-04-21T07:10:55.635Z,43.93
2023-04-21T07:13:25.518Z,42.37
2023-04-21T07:15:54.170Z,46.17
2023-04-21T07:18:22.183Z,44.70
2023-04-21T07:20:51.214Z,46.20
2023-04-21T07:23:19.421Z,46.43
2023-04-21T07:25:47.780Z,45.87
2023-04-21T07:28:16.372Z,42.93
2023-04-21T07:30:47.488Z,43.67
2023-04-21T07:33:15.896Z,41.20
2023-04-21T07:35:44.655Z,39.73
2023-04-21T07:38:12.817Z,43.27
2023-04-21T07:40:41.323Z,44.40
2023-04-21T07:43:09.415Z,38.97
2023-04-21T07:45:37.839Z,40.33
2023-04-21T07:48:09.747Z,41.23
2023-04-21T07:50:38.441Z,38.03
2023-04-21T07:53:06.542Z,38.37
2023-04-21T07:55:34.911Z,39.00
2023-04-21T07:58:05.176Z,38.50
2023-04-21T08:00:33.340Z,39.47
2023-04-21T08:03:01.818Z,40.33
2023-04-21T08:05:36.678Z,37.87
2023-04-21T08:08:07.705Z,37.30
2023-04-21T08:10:36.248Z,39.03
2023-04-21T08:13:06.561Z,35.60
2023-04-21T08:15:35.528Z,35.43
2023-04-21T08:18:05.074Z,32.77
2023-04-21T08:20:35.208Z,33.40
2023-04-21T08:23:04.584Z,38.57
2023-04-21T08:25:33.836Z,40.00
2023-04-21T08:28:02.730Z,38.40
2023-04-21T08:30:31.243Z,31.00
2023-04-21T08:32:59.675Z,32.43
2023-04-21T08:35:27.783Z,30.67
2023-04-21T08:37:57.508Z,26.53
2023-04-21T08:40:31.222Z,27.03
2023-04-21T08:42:59.584Z,27.17
2023-04-21T08:45:29.716Z,25.73
2023-04-21T08:48:00.403Z,28.60
2023-04-21T08:50:30.725Z,28.50
2023-04-21T08:53:00.590Z,28.67
2023-04-21T08:55:31.475Z,31.93
2023-04-21T08:58:00.251Z,32.97
2023-04-21T09:00:28.977Z,29.30
2023-04-21T09:03:01.255Z,28.83
2023-04-21T09:05:32.075Z,30.67
2023-04-21T09:08:11.760Z,24.83
2023-04-21T09:10:47.115Z,24.63
2023-04-21T09:13:16.338Z,25.77
2023-04-21T09:15:48.119Z,25.07
2023-04-21T09:18:17.942Z,22.83
2023-04-21T09:20:48.234Z,23.47
2023-04-21T09:23:18.600Z,23.23
2023-04-21T09:25:47.470Z,23.93
2023-04-21T09:28:16.616Z,22.73
2023-04-21T09:30:45.262Z,21.90
2023-04-21T09:33:28.871Z,22.57
2023-04-21T09:36:03.032Z,21.30
2023-04-21T09:38:33.969Z,22.87
2023-04-21T09:41:02.660Z,21.90
2023-04-21T09:43:32.248Z,20.93
2023-04-21T09:46:03.955Z,21.63
2023-04-21T09:48:35.922Z,22.27
2023-04-21T09:51:22.780Z,20.20
2023-04-21T09:53:59.736Z,20.73
2023-04-21T09:56:31.889Z,22.27
2023-04-21T09:59:02.983Z,20.73
2023-04-21T10:01:32.274Z,20.70
2023-04-21T10:04:01.263Z,21.50
2023-04-21T10:06:30.216Z,21.63
2023-04-21T10:09:00.442Z,20.87
2023-04-21T10:11:28.738Z,19.33
2023-04-21T10:13:56.837Z,22.10
2023-04-21T10:16:26.776Z,20.27
2023-04-21T10:18:55.008Z,21.40
2023-04-21T10:21:24.625Z,19.20
2023-04-21T10:23:54.858Z,20.13
2023-04-21T10:26:27.418Z,19.90
2023-04-21T10:28:57.711Z,21.17
2023-04-21T10:31:31.839Z,19.37
2023-04-21T10:34:30.656Z,20.63
2023-04-21T10:37:15.718Z,21.13
2023-04-21T10:39:57.428Z,19.23
2023-04-21T10:42:37.266Z,18.50
2023-04-21T10:45:11.929Z,18.17
2023-04-21T10:47:49.406Z,20.77
2023-04-21T10:50:26.046Z,25.60
2023-04-21T10:52:57.391Z,19.50
2023-04-21T10:55:31.483Z,38.97
2023-04-21T10:58:06.541Z,23.70
2023-04-21T11:00:34.894Z,18.77
2023-04-21T11:03:05.470Z,21.03
2023-04-21T11:05:40.723Z,19.63
2023-04-21T11:08:11.537Z,21.23
2023-04-21T11:11:00.642Z,21.20
2023-04-21T11:13:33.912Z,20.50
2023-04-21T11:16:07.673Z,19.60
2023-04-21T11:18:40.654Z,17.60
2023-04-21T11:21:16.165Z,19.40
2023-04-21T11:23:50.256Z,21.17
2023-04-21T11:26:20.242Z,19.67
2023-04-21T11:28:52.640Z,22.23
2023-04-21T11:31:21.079Z,18.30
2023-04-21T11:33:49.962Z,17.40
2023-04-21T11:36:18.156Z,19.73
2023-04-21T11:38:46.660Z,16.63
2023-04-21T11:41:22.405Z,17.17
2023-04-21T11:43:52.357Z,16.07
2023-04-21T11:46:25.937Z,16.83
2023-04-21T11:49:01.779Z,15.53
2023-04-21T11:51:35.518Z,17.17
2023-04-21T11:54:05.954Z,14.20
2023-04-21T11:56:37.660Z,19.57
2023-04-21T11:59:12.909Z,17.07
2023-04-21T12:01:44.878Z,16.50
2023-04-21T12:04:16.540Z,18.23
2023-04-21T12:06:45.885Z,23.47
2023-04-21T12:09:20.284Z,18.70
2023-04-21T12:11:50.312Z,16.87
2023-04-21T12:14:21.414Z,21.20
2023-04-21T12:16:51.550Z,14.27
2023-04-21T12:19:36.301Z,21.00
2023-04-21T12:22:09.222Z,18.73
2023-04-21T12:24:37.560Z,17.03
2023-04-21T12:27:07.081Z,17.40
2023-04-21T12:29:38.086Z,18.90
2023-04-21T12:32:06.852Z,16.53
2023-04-21T12:34:35.498Z,21.90
2023-04-21T12:37:04.601Z,22.70
2023-04-21T12:39:33.242Z,19.73
2023-04-21T12:42:01.757Z,16.47
2023-04-21T12:44:30.282Z,15.87
2023-04-21T12:47:00.327Z,14.77
2023-04-21T12:49:29.054Z,13.57
2023-04-21T12:51:57.529Z,16.70
2023-04-21T12:54:25.949Z,15.50
2023-04-21T12:56:54.090Z,14.10
2023-04-21T12:59:22.545Z,17.17
2023-04-21T13:01:52.136Z,13.27
2023-04-21T13:04:23.097Z,16.27
2023-04-21T13:06:51.663Z,16.57
2023-04-21T13:09:20.111Z,13.37
2023-04-21T13:11:48.361Z,11.87
2023-04-21T13:14:18.110Z,11.53
2023-04-21T13:16:46.615Z,16.03
2023-04-21T13:19:15.317Z,13.80
2023-04-21T13:21:45.546Z,16.70
2023-04-21T13:24:14.912Z,12.27
2023-04-21T13:26:44.199Z,13.53
2023-04-21T13:29:12.311Z,12.97
2023-04-21T13:31:40.965Z,11.27
2023-04-21T13:34:09.100Z,12.93
2023-04-21T13:36:37.594Z,12.23
2023-04-21T13:39:10.885Z,11.93
2023-04-21T13:41:39.017Z,13.33
2023-04-21T13:44:07.166Z,14.07
2023-04-21T13:46:35.340Z,14.30
2023-04-21T13:49:03.884Z,10.27
2023-04-21T13:51:32.489Z,10.53
2023-04-21T13:54:01.089Z,12.87
2023-04-21T13:56:30.604Z,10.23
2023-04-21T13:58:59.601Z,12.93
2023-04-21T14:01:27.805Z,12.70
2023-04-21T14:03:57.620Z,14.60
2023-04-21T14:06:27.480Z,12.87
2023-04-21T14:08:56.126Z,13.87
2023-04-21T14:11:24.517Z,13.17
2023-04-21T14:14:09.000Z,11.30
2023-04-21T14:16:37.753Z,12.87
2023-04-21T14:19:06.343Z,12.37
2023-04-21T14:21:34.851Z,10.40
2023-04-21T14:24:03.296Z,15.33
2023-04-21T14:26:32.036Z,10.97
2023-04-21T14:29:03.189Z,10.80
2023-04-21T14:31:32.355Z,11.03
2023-04-21T14:34:00.758Z,10.50
2023-04-21T14:36:28.939Z,10.60
2023-04-21T14:38:57.084Z,10.77
2023-04-21T14:41:25.338Z,9.67
2023-04-21T14:43:56.700Z,11.00
2023-04-21T14:46:26.677Z,11.17
2023-04-21T14:48:56.388Z,10.77
2023-04-21T14:51:24.621Z,10.35
2023-04-21T14:53:52.748Z,11.67
2023-04-21T14:56:20.829Z,10.15
2023-04-21T14:58:48.971Z,10.30
2023-04-21T15:01:17.276Z,10.68
2023-04-21T15:03:47.199Z,11.52
2023-04-21T15:06:16.291Z,9.40
2023-04-21T15:08:46.643Z,11.98
2023-04-21T15:11:15.489Z,12.90
2023-04-21T15:13:43.711Z,11.97
2023-04-21T15:16:11.929Z,8.32
2023-04-21T15:18:40.115Z,8.90
2023-04-21T15:21:09.633Z,9.98
2023-04-21T15:23:38.061Z,11.55
2023-04-21T15:26:06.431Z,9.77
2023-04-21T15:28:36.114Z,8.80
2023-04-21T15:31:04.297Z,11.30
2023-04-21T15:33:32.992Z,9.93
2023-04-21T15:36:01.161Z,9.30
2023-04-21T15:38:30.782Z,8.70
2023-04-21T15:41:00.771Z,9.00
2023-04-21T15:43:35.229Z,8.43
2023-04-21T15:46:03.368Z,10.88
2023-04-21T15:48:31.684Z,8.60
2023-04-21T15:50:59.803Z,9.93
2023-04-21T15:53:28.382Z,10.88
2023-04-21T15:55:57.832Z,12.45
2023-04-21T15:58:26.531Z,9.98
2023-04-21T16:00:54.794Z,9.27
2023-04-21T16:03:23.155Z,9.07
2023-04-21T16:05:51.556Z,9.82
2023-04-21T16:08:19.890Z,10.50
2023-04-21T16:10:48.223Z,9.93
2023-04-21T16:13:17.912Z,10.35
2023-04-21T16:15:46.241Z,9.23
2023-04-21T16:18:14.428Z,8.68
2023-04-21T16:20:44.128Z,10.00
2023-04-21T16:23:12.232Z,10.95
2023-04-21T16:25:40.762Z,10.38
2023-04-21T16:28:11.611Z,8.02
2023-04-21T16:30:43.957Z,10.25
2023-04-21T16:33:13.286Z,8.52
2023-04-21T16:35:44.585Z,8.48
2023-04-21T16:38:13.116Z,8.57
2023-04-21T16:40:41.229Z,8.73
2023-04-21T16:43:09.618Z,8.27
2023-04-21T16:45:38.200Z,9.45
2023-04-21T16:48:08.375Z,8.95
2023-04-21T16:50:36.684Z,9.38
2023-04-21T16:53:04.792Z,7.32
2023-04-21T16:55:32.819Z,7.47
2023-04-21T16:58:01.000Z,8.15
2023-04-21T17:00:30.428Z,8.23
2023-04-21T17:02:58.849Z,8.57
2023-04-21T17:05:28.730Z,8.27
2023-04-21T17:07:56.884Z,7.50
2023-04-21T17:10:27.114Z,9.10
2023-04-21T17:12:55.271Z,7.55
2023-04-21T17:15:23.734Z,7.03
2023-04-21T17:17:51.986Z,8.07
2023-04-21T17:20:20.182Z,8.45
2023-04-21T17:22:50.122Z,8.20
2023-04-21T17:25:18.270Z,7.00
2023-04-21T17:27:46.629Z,7.63
2023-04-21T17:30:17.128Z,7.30
2023-04-21T17:32:45.400Z,8.15
2023-04-21T17:35:13.611Z,8.18
2023-04-21T17:37:44.374Z,10.77
2023-04-21T17:40:14.752Z,10.32
2023-04-21T17:42:43.186Z,9.15
2023-04-21T17:45:12.189Z,9.45
2023-04-21T17:47:40.893Z,8.80
2023-04-21T17:50:11.852Z,7.70
2023-04-21T17:52:40.406Z,8.77
2023-04-21T17:55:09.394Z,10.32
2023-04-21T17:57:40.247Z,9.63
2023-04-21T18:00:11.614Z,11.13
2023-04-21T18:02:39.991Z,9.70
2023-04-21T18:05:09.500Z,9.00
2023-04-21T18:07:37.931Z,10.50
2023-04-21T18:10:07.276Z,7.67
2023-04-21T18:12:35.844Z,11.07
2023-04-21T18:15:07.662Z,12.00
2023-04-21T18:17:37.283Z,12.23
2023-04-21T18:20:06.371Z,8.03
2023-04-21T18:22:35.671Z,9.33
2023-04-21T18:25:04.269Z,7.53
2023-04-21T18:27:32.444Z,9.90
2023-04-21T18:30:00.839Z,9.93
2023-04-21T18:32:33.819Z,8.77
2023-04-21T18:35:02.455Z,8.17
2023-04-21T18:37:32.315Z,10.73
2023-04-21T18:40:00.960Z,9.23
2023-04-21T18:42:29.452Z,8.63
2023-04-21T18:44:58.693Z,8.67
2023-04-21T18:47:28.032Z,11.70
2023-04-21T18:50:00.358Z,11.03
2023-04-21T18:52:28.748Z,9.67
2023-04-21T18:54:56.934Z,13.23
2023-04-21T18:57:25.956Z,11.13
2023-04-21T18:59:54.791Z,14.67
2023-04-21T19:02:23.097Z,10.90
2023-04-21T19:04:51.569Z,13.30
2023-04-21T19:07:22.149Z,12.13
2023-04-21T19:09:52.364Z,11.73
2023-04-21T19:12:21.959Z,10.40
2023-04-21T19:14:50.945Z,10.63
2023-04-21T19:17:19.349Z,14.10
2023-04-21T19:19:47.648Z,15.97
2023-04-21T19:22:16.080Z,10.27
2023-04-21T19:24:45.692Z,10.30
2023-04-21T19:27:14.387Z,12.57
2023-04-21T19:29:43.017Z,11.63
2023-04-21T19:32:11.374Z,15.83
2023-04-21T19:34:40.113Z,12.53
2023-04-21T19:37:08.962Z,14.40
2023-04-21T19:39:37.238Z,13.80
2023-04-21T19:42:07.071Z,14.97
2023-04-21T19:44:35.779Z,14.23
2023-04-21T19:47:04.683Z,11.67
2023-04-21T19:49:32.954Z,13.70
2023-04-21T19:52:01.396Z,15.33
2023-04-21T19:54:29.743Z,17.37
2023-04-21T19:56:58.077Z,15.10
2023-04-21T19:59:27.905Z,15.67
2023-04-21T20:01:56.108Z,14.67
2023-04-21T20:04:24.520Z,14.17
2023-04-21T20:06:52.927Z,13.30
2023-04-21T20:09:21.060Z,14.83
2023-04-21T20:11:49.550Z,13.00
2023-04-21T20:14:19.395Z,13.77
2023-04-21T20:16:50.275Z,14.77
2023-04-21T20:19:18.481Z,14.33
2023-04-21T20:21:46.593Z,15.00
2023-04-21T20:24:14.796Z,15.03
2023-04-21T20:26:42.948Z,15.53
2023-04-21T20:29:11.249Z,13.23
2023-04-21T20:31:41.689Z,14.50
2023-04-21T20:34:12.124Z,13.93
2023-04-21T20:36:41.793Z,15.73
2023-04-21T20:39:10.118Z,13.67
2023-04-21T20:41:39.099Z,13.40
2023-04-21T20:44:07.387Z,15.50
2023-04-21T20:46:35.634Z,13.20
2023-04-21T20:49:04.599Z,12.03
2023-04-21T20:51:34.458Z,11.47
2023-04-21T20:54:02.653Z,14.57
2023-04-21T20:56:32.315Z,12.93
2023-04-21T20:59:00.739Z,14.87
2023-04-21T21:01:30.656Z,12.97
2023-04-21T21:04:01.375Z,15.60
2023-04-21T21:06:30.217Z,16.43
2023-04-21T21:09:01.103Z,15.97
2023-04-21T21:11:29.557Z,15.63
2023-04-21T21:13:58.823Z,15.00
2023-04-21T21:16:27.314Z,15.83
2023-04-21T21:18:55.418Z,16.30
2023-04-21T21:21:23.787Z,16.33
2023-04-21T21:23:52.196Z,17.53
2023-04-21T21:26:22.495Z,18.47
2023-04-21T21:28:50.889Z,16.23
2023-04-21T21:31:19.209Z,19.57
2023-04-21T21:33:47.359Z,17.43
2023-04-21T21:36:15.770Z,18.63
2023-04-21T21:38:44.094Z,14.13
2023-04-21T21:41:12.877Z,14.50
2023-04-21T21:43:42.513Z,15.17
2023-04-21T21:46:13.665Z,17.03
2023-04-21T21:48:42.716Z,15.97
2023-04-21T21:51:11.264Z,15.13
2023-04-21T21:53:39.499Z,15.87
2023-04-21T21:56:07.961Z,20.00
2023-04-21T21:58:36.400Z,15.57
2023-04-21T22:01:06.954Z,16.17
2023-04-21T22:03:36.328Z,15.70
2023-04-21T22:06:05.326Z,15.27
2023-04-21T22:08:33.660Z,14.83
2023-04-21T22:11:06.031Z,16.77
2023-04-21T22:13:34.147Z,15.67
2023-04-21T22:16:02.981Z,14.33
2023-04-21T22:18:32.804Z,15.73
2023-04-21T22:21:01.446Z,15.10
2023-04-21T22:23:29.822Z,16.97
2023-04-21T22:25:58.027Z,16.70
2023-04-21T22:28:26.367Z,16.73
2023-04-21T22:30:54.532Z,15.97
2023-04-21T22:33:24.354Z,14.70
2023-04-21T22:35:54.482Z,15.57
2023-04-21T22:38:22.601Z,14.30
2023-04-21T22:40:50.658Z,16.93
2023-04-21T22:43:21.191Z,15.60
2023-04-21T22:45:51.879Z,17.67
2023-04-21T22:48:20.131Z,16.50
2023-04-21T22:50:48.204Z,18.30
2023-04-21T22:53:18.058Z,17.07
2023-04-21T22:55:46.308Z,13.67
2023-04-21T22:58:15.740Z,15.50
2023-04-21T23:00:45.239Z,14.83
2023-04-21T23:03:13.651Z,16.30
2023-04-21T23:05:42.487Z,14.77
2023-04-21T23:08:10.712Z,14.00
2023-04-21T23:10:40.692Z,15.50
2023-04-21T23:13:08.740Z,15.20
2023-04-21T23:15:37.189Z,17.43
2023-04-21T23:18:05.586Z,15.93
2023-04-21T23:20:34.006Z,18.10
2023-04-21T23:23:03.307Z,12.53
2023-04-21T23:25:32.051Z,14.13
2023-04-21T23:28:02.575Z,13.93
2023-04-21T23:30:30.909Z,16.20
2023-04-21T23:32:59.538Z,15.10
2023-04-21T23:35:29.217Z,17.50
2023-04-21T23:37:57.519Z,16.77
2023-04-21T23:40:26.215Z,16.43
2023-04-21T23:42:54.627Z,17.23
2023-04-21T23:45:24.160Z,21.47
2023-04-21T23:47:52.710Z,19.03
2023-04-21T23:50:21.013Z,17.03
2023-04-21T23:52:51.098Z,17.27
2023-04-21T23:55:19.646Z,13.80
2023-04-21T23:57:48.014Z,14.40
